sensor_id;sensor_type;location;lat;lon;timestamp;pressure;altitude;pressure_sealevel;temperature;humidity
37066;BME280;22981;43.080;25.550;2023-04-27T00:00:49;99231.12;;;11.10;76.91
37066;BME280;22981;43.080;25.550;2023-04-27T00:03:17;99235.30;;;11.06;77.03
37066;BME280;22981;43.080;25.550;2023-04-27T00:05:45;99233.88;;;11.03;77.14
37066;BME280;22981;43.080;25.550;2023-04-27T00:08:12;99244.30;;;11.02;77.12
37066;BME280;22981;43.080;25.550;2023-04-27T00:10:40;99238.66;;;11.01;77.08
37066;BME280;22981;43.080;25.550;2023-04-27T00:13:07;99239.69;;;11.00;77.05
37066;BME280;22981;43.080;25.550;2023-04-27T00:15:35;99239.69;;;11.00;77.05
37066;BME280;22981;43.080;25.550;2023-04-27T00:18:02;99241.55;;;10.99;76.89
37066;BME280;22981;43.080;25.550;2023-04-27T00:20:30;99247.59;;;10.95;76.70
37066;BME280;22981;43.080;25.550;2023-04-27T00:22:59;99247.30;;;10.94;76.67
37066;BME280;22981;43.080;25.550;2023-04-27T00:25:26;99248.88;;;10.92;76.77
37066;BME280;22981;43.080;25.550;2023-04-27T00:27:54;99254.23;;;10.92;76.86
37066;BME280;22981;43.080;25.550;2023-04-27T00:30:21;99256.91;;;10.92;76.86
37066;BME280;22981;43.080;25.550;2023-04-27T00:32:49;99257.41;;;10.92;76.88
37066;BME280;22981;43.080;25.550;2023-04-27T00:35:17;99253.70;;;10.93;76.88
37066;BME280;22981;43.080;25.550;2023-04-27T00:37:44;99258.02;;;10.94;76.81
37066;BME280;22981;43.080;25.550;2023-04-27T00:40:12;99263.30;;;10.91;76.81
37066;BME280;22981;43.080;25.550;2023-04-27T00:42:39;99269.98;;;10.91;76.87
37066;BME280;22981;43.080;25.550;2023-04-27T00:45:08;99264.34;;;10.90;76.85
37066;BME280;22981;43.080;25.550;2023-04-27T00:47:36;99264.78;;;10.87;76.96
37066;BME280;22981;43.080;25.550;2023-04-27T00:50:04;99268.59;;;10.89;77.01
37066;BME280;22981;43.080;25.550;2023-04-27T00:52:34;99272.66;;;10.91;77.03
37066;BME280;22981;43.080;25.550;2023-04-27T00:55:03;99269.78;;;10.93;77.05
37066;BME280;22981;43.080;25.550;2023-04-27T00:57:33;99267.83;;;10.91;77.11
37066;BME280;22981;43.080;25.550;2023-04-27T01:00:01;99277.20;;;10.91;77.17
37066;BME280;22981;43.080;25.550;2023-04-27T01:02:30;99280.65;;;10.89;77.08
37066;BME280;22981;43.080;25.550;2023-04-27T01:04:58;99280.85;;;10.87;77.12
37066;BME280;22981;43.080;25.550;2023-04-27T01:07:26;99279.46;;;10.85;77.07
37066;BME280;22981;43.080;25.550;2023-04-27T01:09:54;99284.21;;;10.83;77.05
37066;BME280;22981;43.080;25.550;2023-04-27T01:12:21;99286.84;;;10.80;77.02
37066;BME280;22981;43.080;25.550;2023-04-27T01:14:49;99294.78;;;10.77;76.97
37066;BME280;22981;43.080;25.550;2023-04-27T01:17:17;99299.85;;;10.76;76.86
37066;BME280;22981;43.080;25.550;2023-04-27T01:19:44;99300.53;;;10.72;76.83
37066;BME280;22981;43.080;25.550;2023-04-27T01:22:12;99305.74;;;10.67;76.97
37066;BME280;22981;43.080;25.550;2023-04-27T01:24:40;99305.89;;;10.63;77.16
37066;BME280;22981;43.080;25.550;2023-04-27T01:27:08;99308.77;;;10.61;77.19
37066;BME280;22981;43.080;25.550;2023-04-27T01:29:35;99316.42;;;10.58;77.09
37066;BME280;22981;43.080;25.550;2023-04-27T01:32:03;99319.34;;;10.56;77.14
37066;BME280;22981;43.080;25.550;2023-04-27T01:34:31;99316.80;;;10.52;77.31
37066;BME280;22981;43.080;25.550;2023-04-27T01:36:58;99321.88;;;10.51;77.39
37066;BME280;22981;43.080;25.550;2023-04-27T01:39:26;99323.88;;;10.46;77.57
37066;BME280;22981;43.080;25.550;2023-04-27T01:41:54;99333.24;;;10.46;77.64
37066;BME280;22981;43.080;25.550;2023-04-27T01:44:21;99327.80;;;10.44;77.70
37066;BME280;22981;43.080;25.550;2023-04-27T01:46:50;99328.41;;;10.46;77.75
37066;BME280;22981;43.080;25.550;2023-04-27T01:49:17;99325.73;;;10.46;77.70
37066;BME280;22981;43.080;25.550;2023-04-27T01:51:45;99329.14;;;10.44;77.70
37066;BME280;22981;43.080;25.550;2023-04-27T01:54:12;99336.50;;;10.39;77.78
37066;BME280;22981;43.080;25.550;2023-04-27T01:56:40;99338.07;;;10.38;77.88
37066;BME280;22981;43.080;25.550;2023-04-27T01:59:08;99342.22;;;10.34;77.91
37066;BME280;22981;43.080;25.550;2023-04-27T02:01:35;99342.45;;;10.32;78.01
37066;BME280;22981;43.080;25.550;2023-04-27T02:04:03;99339.78;;;10.32;78.05
37066;BME280;22981;43.080;25.550;2023-04-27T02:06:30;99345.19;;;10.35;78.12
37066;BME280;22981;43.080;25.550;2023-04-27T02:08:58;99346.30;;;10.36;78.08
37066;BME280;22981;43.080;25.550;2023-04-27T02:11:26;99348.09;;;10.33;78.11
37066;BME280;22981;43.080;25.550;2023-04-27T02:13:53;99349.95;;;10.33;78.21
37066;BME280;22981;43.080;25.550;2023-04-27T02:16:21;99345.71;;;10.34;78.19
37066;BME280;22981;43.080;25.550;2023-04-27T02:18:48;99353.45;;;10.33;78.09
37066;BME280;22981;43.080;25.550;2023-04-27T02:21:18;99353.97;;;10.33;78.11
37066;BME280;22981;43.080;25.550;2023-04-27T02:23:45;99358.05;;;10.35;78.04
37066;BME280;22981;43.080;25.550;2023-04-27T02:26:17;99357.23;;;10.35;77.85
37066;BME280;22981;43.080;25.550;2023-04-27T02:28:45;99359.75;;;10.30;77.90
37066;BME280;22981;43.080;25.550;2023-04-27T02:31:14;99364.49;;;10.27;77.98
37066;BME280;22981;43.080;25.550;2023-04-27T02:33:42;99366.45;;;10.30;77.99
37066;BME280;22981;43.080;25.550;2023-04-27T02:36:09;99368.30;;;10.29;77.94
37066;BME280;22981;43.080;25.550;2023-04-27T02:38:37;99372.03;;;10.28;77.91
37066;BME280;22981;43.080;25.550;2023-04-27T02:41:04;99374.48;;;10.23;77.81
37066;BME280;22981;43.080;25.550;2023-04-27T02:43:32;99374.95;;;10.20;77.50
37066;BME280;22981;43.080;25.550;2023-04-27T02:46:03;99372.93;;;10.15;76.96
37066;BME280;22981;43.080;25.550;2023-04-27T02:48:32;99366.28;;;10.09;76.70
37066;BME280;22981;43.080;25.550;2023-04-27T02:51:04;99374.97;;;10.04;76.65
37066;BME280;22981;43.080;25.550;2023-04-27T02:56:07;99380.68;;;9.98;76.55
37066;BME280;22981;43.080;25.550;2023-04-27T02:58:36;99382.34;;;9.93;76.20
37066;BME280;22981;43.080;25.550;2023-04-27T03:01:05;99384.44;;;9.91;75.89
37066;BME280;22981;43.080;25.550;2023-04-27T03:03:32;99385.90;;;9.87;75.48
37066;BME280;22981;43.080;25.550;2023-04-27T03:06:01;99391.80;;;9.79;75.24
37066;BME280;22981;43.080;25.550;2023-04-27T03:08:29;99390.30;;;9.74;74.95
37066;BME280;22981;43.080;25.550;2023-04-27T03:10:57;99396.00;;;9.69;74.86
37066;BME280;22981;43.080;25.550;2023-04-27T03:13:24;99395.91;;;9.66;74.88
37066;BME280;22981;43.080;25.550;2023-04-27T03:15:53;99398.80;;;9.65;74.79
37066;BME280;22981;43.080;25.550;2023-04-27T03:18:21;99406.00;;;9.64;74.76
37066;BME280;22981;43.080;25.550;2023-04-27T03:20:48;99405.44;;;9.56;74.77
37066;BME280;22981;43.080;25.550;2023-04-27T03:23:16;99412.77;;;9.51;74.77
37066;BME280;22981;43.080;25.550;2023-04-27T03:25:43;99413.18;;;9.48;74.87
37066;BME280;22981;43.080;25.550;2023-04-27T03:28:11;99411.10;;;9.50;74.92
37066;BME280;22981;43.080;25.550;2023-04-27T03:30:39;99421.20;;;9.48;74.86
37066;BME280;22981;43.080;25.550;2023-04-27T03:33:06;99421.20;;;9.48;74.80
37066;BME280;22981;43.080;25.550;2023-04-27T03:35:34;99423.05;;;9.47;74.71
37066;BME280;22981;43.080;25.550;2023-04-27T03:38:02;99424.17;;;9.49;74.79
37066;BME280;22981;43.080;25.550;2023-04-27T03:40:29;99419.44;;;9.51;74.86
37066;BME280;22981;43.080;25.550;2023-04-27T03:42:57;99428.05;;;9.53;75.10
37066;BME280;22981;43.080;25.550;2023-04-27T03:45:24;99421.89;;;9.52;75.13
37066;BME280;22981;43.080;25.550;2023-04-27T03:47:52;99429.69;;;9.54;75.08
37066;BME280;22981;43.080;25.550;2023-04-27T03:50:20;99425.38;;;9.53;75.03
37066;BME280;22981;43.080;25.550;2023-04-27T03:52:47;99434.96;;;9.51;74.84
37066;BME280;22981;43.080;25.550;2023-04-27T03:55:15;99435.67;;;9.49;74.80
37066;BME280;22981;43.080;25.550;2023-04-27T03:57:42;99431.59;;;9.47;74.66
37066;BME280;22981;43.080;25.550;2023-04-27T04:00:10;99439.61;;;9.47;74.61
37066;BME280;22981;43.080;25.550;2023-04-27T04:02:38;99439.16;;;9.50;74.63
37066;BME280;22981;43.080;25.550;2023-04-27T04:05:05;99438.05;;;9.48;74.53
37066;BME280;22981;43.080;25.550;2023-04-27T04:07:34;99442.28;;;9.47;74.39
37066;BME280;22981;43.080;25.550;2023-04-27T04:10:02;99440.02;;;9.44;74.34
37066;BME280;22981;43.080;25.550;2023-04-27T04:12:29;99445.27;;;9.41;74.26
37066;BME280;22981;43.080;25.550;2023-04-27T04:14:57;99447.12;;;9.41;74.27
37066;BME280;22981;43.080;25.550;2023-04-27T04:17:24;99453.38;;;9.44;74.46
37066;BME280;22981;43.080;25.550;2023-04-27T04:19:52;99459.13;;;9.47;74.60
37066;BME280;22981;43.080;25.550;2023-04-27T04:22:20;99458.68;;;9.50;74.67
37066;BME280;22981;43.080;25.550;2023-04-27T04:24:47;99461.68;;;9.51;74.75
37066;BME280;22981;43.080;25.550;2023-04-27T04:27:15;99457.67;;;9.51;74.83
37066;BME280;22981;43.080;25.550;2023-04-27T04:29:42;99465.47;;;9.53;74.82
37066;BME280;22981;43.080;25.550;2023-04-27T04:32:10;99465.25;;;9.54;74.80
37066;BME280;22981;43.080;25.550;2023-04-27T04:34:37;99468.25;;;9.56;74.75
37066;BME280;22981;43.080;25.550;2023-04-27T04:37:05;99473.08;;;9.49;74.48
37066;BME280;22981;43.080;25.550;2023-04-27T04:39:32;99465.63;;;9.42;74.53
37066;BME280;22981;43.080;25.550;2023-04-27T04:42:00;99463.56;;;9.38;74.54
37066;BME280;22981;43.080;25.550;2023-04-27T04:44:29;99468.61;;;9.37;74.55
37066;BME280;22981;43.080;25.550;2023-04-27T04:46:57;99466.23;;;9.38;74.52
37066;BME280;22981;43.080;25.550;2023-04-27T04:49:24;99471.28;;;9.37;74.48
37066;BME280;22981;43.080;25.550;2023-04-27T04:51:52;99469.36;;;9.35;74.54
37066;BME280;22981;43.080;25.550;2023-04-27T04:54:19;99472.10;;;9.37;74.45
37066;BME280;22981;43.080;25.550;2023-04-27T04:56:47;99475.47;;;9.42;74.40
37066;BME280;22981;43.080;25.550;2023-04-27T04:59:14;99482.03;;;9.46;74.26
37066;BME280;22981;43.080;25.550;2023-04-27T05:01:42;99476.32;;;9.42;74.07
37066;BME280;22981;43.080;25.550;2023-04-27T05:04:10;99481.56;;;9.40;74.04
37066;BME280;22981;43.080;25.550;2023-04-27T05:06:38;99485.45;;;9.44;74.13
37066;BME280;22981;43.080;25.550;2023-04-27T05:09:06;99485.73;;;9.51;74.25
37066;BME280;22981;43.080;25.550;2023-04-27T05:11:33;99486.03;;;9.52;74.33
37066;BME280;22981;43.080;25.550;2023-04-27T05:14:01;99492.71;;;9.52;74.52
37066;BME280;22981;43.080;25.550;2023-04-27T05:16:28;99495.27;;;9.57;74.47
37066;BME280;22981;43.080;25.550;2023-04-27T05:19:01;99493.93;;;9.57;74.57
37066;BME280;22981;43.080;25.550;2023-04-27T05:21:32;99494.62;;;9.61;74.70
37066;BME280;22981;43.080;25.550;2023-04-27T05:24:00;99495.84;;;9.65;74.82
37066;BME280;22981;43.080;25.550;2023-04-27T05:26:27;99498.30;;;9.67;74.87
37066;BME280;22981;43.080;25.550;2023-04-27T05:28:55;99498.39;;;9.69;74.83
37066;BME280;22981;43.080;25.550;2023-04-27T05:31:22;99496.44;;;9.67;74.76
37066;BME280;22981;43.080;25.550;2023-04-27T05:33:50;99497.36;;;9.70;74.54
37066;BME280;22981;43.080;25.550;2023-04-27T05:36:17;99505.48;;;9.73;74.26
37066;BME280;22981;43.080;25.550;2023-04-27T05:38:45;99500.43;;;9.74;74.45
37066;BME280;22981;43.080;25.550;2023-04-27T05:41:13;99511.24;;;9.70;74.57
37066;BME280;22981;43.080;25.550;2023-04-27T05:43:40;99502.93;;;9.69;74.63
37066;BME280;22981;43.080;25.550;2023-04-27T05:46:11;99507.83;;;9.72;74.79
37066;BME280;22981;43.080;25.550;2023-04-27T05:48:37;99508.39;;;9.65;74.45
37066;BME280;22981;43.080;25.550;2023-04-27T05:51:05;99520.87;;;9.55;74.62
37066;BME280;22981;43.080;25.550;2023-04-27T05:53:33;99520.14;;;9.57;74.95
37066;BME280;22981;43.080;25.550;2023-04-27T05:56:01;99518.16;;;9.62;75.10
37066;BME280;22981;43.080;25.550;2023-04-27T05:58:30;99527.11;;;9.65;75.05
37066;BME280;22981;43.080;25.550;2023-04-27T06:00:58;99492.09;;;9.50;75.04
37066;BME280;22981;43.080;25.550;2023-04-27T06:03:25;99520.08;;;9.70;74.84
37066;BME280;22981;43.080;25.550;2023-04-27T06:05:58;99529.44;;;9.70;74.99
37066;BME280;22981;43.080;25.550;2023-04-27T06:08:30;99526.54;;;9.72;74.88
37066;BME280;22981;43.080;25.550;2023-04-27T06:11:02;99530.06;;;9.72;75.02
37066;BME280;22981;43.080;25.550;2023-04-27T06:13:33;99534.77;;;9.77;75.13
37066;BME280;22981;43.080;25.550;2023-04-27T06:16:01;99534.84;;;9.79;75.12
37066;BME280;22981;43.080;25.550;2023-04-27T06:18:28;99536.06;;;9.84;75.09
37066;BME280;22981;43.080;25.550;2023-04-27T06:21:00;99529.25;;;9.88;75.04
37066;BME280;22981;43.080;25.550;2023-04-27T06:23:28;99528.09;;;9.93;74.89
37066;BME280;22981;43.080;25.550;2023-04-27T06:25:56;99526.56;;;9.94;74.80
37066;BME280;22981;43.080;25.550;2023-04-27T06:28:24;99526.23;;;9.93;74.75
37066;BME280;22981;43.080;25.550;2023-04-27T06:30:53;99529.23;;;9.94;74.68
37066;BME280;22981;43.080;25.550;2023-04-27T06:33:20;99524.89;;;9.93;74.57
37066;BME280;22981;43.080;25.550;2023-04-27T06:35:48;99530.34;;;9.96;74.44
37066;BME280;22981;43.080;25.550;2023-04-27T06:38:16;99528.61;;;9.92;74.39
37066;BME280;22981;43.080;25.550;2023-04-27T06:40:44;99529.53;;;9.95;74.42
37066;BME280;22981;43.080;25.550;2023-04-27T06:43:11;99527.77;;;9.98;74.39
37066;BME280;22981;43.080;25.550;2023-04-27T06:45:39;99534.75;;;9.99;74.34
37066;BME280;22981;43.080;25.550;2023-04-27T06:48:08;99537.50;;;10.02;74.30
37066;BME280;22981;43.080;25.550;2023-04-27T06:50:35;99542.36;;;10.02;74.16
37066;BME280;22981;43.080;25.550;2023-04-27T06:53:03;99542.16;;;9.97;73.90
37066;BME280;22981;43.080;25.550;2023-04-27T06:55:30;99545.47;;;9.93;73.57
37066;BME280;22981;43.080;25.550;2023-04-27T06:57:58;99541.92;;;9.83;73.24
37066;BME280;22981;43.080;25.550;2023-04-27T07:00:25;99550.98;;;9.82;73.23
37066;BME280;22981;43.080;25.550;2023-04-27T07:02:53;99544.37;;;9.85;73.35
37066;BME280;22981;43.080;25.550;2023-04-27T07:05:21;99546.22;;;9.91;73.54
37066;BME280;22981;43.080;25.550;2023-04-27T07:07:48;99548.14;;;9.93;73.22
37066;BME280;22981;43.080;25.550;2023-04-27T07:10:16;99547.62;;;9.93;73.11
37066;BME280;22981;43.080;25.550;2023-04-27T07:12:44;99547.73;;;9.96;73.07
37066;BME280;22981;43.080;25.550;2023-04-27T07:15:11;99547.31;;;9.99;72.94
37066;BME280;22981;43.080;25.550;2023-04-27T07:17:39;99548.64;;;9.99;72.66
37066;BME280;22981;43.080;25.550;2023-04-27T07:20:07;99548.25;;;9.95;72.57
37066;BME280;22981;43.080;25.550;2023-04-27T07:22:35;99549.88;;;9.96;72.65
37066;BME280;22981;43.080;25.550;2023-04-27T07:25:02;99547.95;;;9.94;72.31
37066;BME280;22981;43.080;25.550;2023-04-27T07:27:30;99550.82;;;9.93;72.20
37066;BME280;22981;43.080;25.550;2023-04-27T07:29:58;99551.56;;;9.91;72.01
37066;BME280;22981;43.080;25.550;2023-04-27T07:32:26;99550.30;;;9.93;71.99
37066;BME280;22981;43.080;25.550;2023-04-27T07:34:56;99550.82;;;9.93;71.76
37066;BME280;22981;43.080;25.550;2023-04-27T07:37:24;99550.45;;;9.89;71.58
37066;BME280;22981;43.080;25.550;2023-04-27T07:39:52;99554.47;;;9.89;71.38
37066;BME280;22981;43.080;25.550;2023-04-27T07:42:20;99549.43;;;9.84;71.14
37066;BME280;22981;43.080;25.550;2023-04-27T07:44:51;99549.77;;;9.78;70.91
37066;BME280;22981;43.080;25.550;2023-04-27T07:47:19;99555.53;;;9.75;70.63
37066;BME280;22981;43.080;25.550;2023-04-27T07:49:47;99556.27;;;9.73;70.44
37066;BME280;22981;43.080;25.550;2023-04-27T07:52:14;99566.03;;;9.76;70.73
37066;BME280;22981;43.080;25.550;2023-04-27T07:54:42;99559.70;;;9.87;71.01
37066;BME280;22981;43.080;25.550;2023-04-27T07:57:10;99557.83;;;9.94;70.89
37066;BME280;22981;43.080;25.550;2023-04-27T07:59:38;99557.31;;;9.94;70.73
37066;BME280;22981;43.080;25.550;2023-04-27T08:02:06;99561.84;;;9.94;69.97
37066;BME280;22981;43.080;25.550;2023-04-27T08:04:33;99568.32;;;9.89;69.49
37066;BME280;22981;43.080;25.550;2023-04-27T08:07:01;99566.69;;;9.88;69.64
37066;BME280;22981;43.080;25.550;2023-04-27T08:09:29;99565.45;;;9.90;69.95
37066;BME280;22981;43.080;25.550;2023-04-27T08:11:57;99572.03;;;9.88;69.69
37066;BME280;22981;43.080;25.550;2023-04-27T08:14:25;99569.00;;;9.77;69.06
37066;BME280;22981;43.080;25.550;2023-04-27T08:16:57;99571.50;;;9.72;69.24
37066;BME280;22981;43.080;25.550;2023-04-27T08:19:28;99573.13;;;9.73;69.42
37066;BME280;22981;43.080;25.550;2023-04-27T08:21:55;99570.75;;;9.74;69.34
37066;BME280;22981;43.080;25.550;2023-04-27T08:24:23;99572.79;;;9.79;69.22
37066;BME280;22981;43.080;25.550;2023-04-27T08:26:50;99574.83;;;9.84;69.32
37066;BME280;22981;43.080;25.550;2023-04-27T08:29:18;99578.12;;;9.86;69.32
37066;BME280;22981;43.080;25.550;2023-04-27T08:31:45;99574.71;;;9.88;69.27
37066;BME280;22981;43.080;25.550;2023-04-27T08:34:13;99570.69;;;9.94;69.25
37066;BME280;22981;43.080;25.550;2023-04-27T08:36:41;99568.53;;;9.94;68.75
37066;BME280;22981;43.080;25.550;2023-04-27T08:39:08;99573.36;;;9.94;68.83
37066;BME280;22981;43.080;25.550;2023-04-27T08:41:36;99569.75;;;9.98;68.65
37066;BME280;22981;43.080;25.550;2023-04-27T08:44:06;99570.56;;;9.98;68.10
37066;BME280;22981;43.080;25.550;2023-04-27T08:46:37;99564.40;;;9.98;68.00
37066;BME280;22981;43.080;25.550;2023-04-27T08:49:05;99567.84;;;10.05;68.11
37066;BME280;22981;43.080;25.550;2023-04-27T08:51:35;99564.97;;;10.07;67.86
37066;BME280;22981;43.080;25.550;2023-04-27T08:54:03;99564.23;;;10.09;67.48
37066;BME280;22981;43.080;25.550;2023-04-27T08:56:31;99567.13;;;10.07;67.05
37066;BME280;22981;43.080;25.550;2023-04-27T08:59:00;99563.23;;;10.03;66.98
37066;BME280;22981;43.080;25.550;2023-04-27T09:01:30;99562.61;;;10.01;66.99
37066;BME280;22981;43.080;25.550;2023-04-27T09:03:59;99560.75;;;10.01;66.40
37066;BME280;22981;43.080;25.550;2023-04-27T09:06:34;99558.70;;;10.03;66.05
37066;BME280;22981;43.080;25.550;2023-04-27T09:09:02;99559.17;;;10.10;66.28
37066;BME280;22981;43.080;25.550;2023-04-27T09:11:32;99552.53;;;10.19;66.17
37066;BME280;22981;43.080;25.550;2023-04-27T09:14:02;99552.31;;;10.27;65.97
37066;BME280;22981;43.080;25.550;2023-04-27T09:16:30;99559.37;;;10.37;65.32
37066;BME280;22981;43.080;25.550;2023-04-27T09:18:59;99546.19;;;10.36;64.20
37066;BME280;22981;43.080;25.550;2023-04-27T09:21:28;99547.45;;;10.33;64.38
37066;BME280;22981;43.080;25.550;2023-04-27T09:24:08;99545.76;;;10.39;64.39
37066;BME280;22981;43.080;25.550;2023-04-27T09:26:27;99549.73;;;10.30;63.74
37066;BME280;22981;43.080;25.550;2023-04-27T09:28:57;99553.91;;;10.35;64.34
37066;BME280;22981;43.080;25.550;2023-04-27T09:31:31;99547.62;;;10.38;63.83
37066;BME280;22981;43.080;25.550;2023-04-27T09:33:59;99546.94;;;10.34;63.84
37066;BME280;22981;43.080;25.550;2023-04-27T09:36:27;99549.25;;;10.39;64.02
37066;BME280;22981;43.080;25.550;2023-04-27T09:39:01;99545.11;;;10.43;63.83
37066;BME280;22981;43.080;25.550;2023-04-27T09:41:27;99543.25;;;10.44;64.07
37066;BME280;22981;43.080;25.550;2023-04-27T09:43:56;99541.13;;;10.52;64.32
37066;BME280;22981;43.080;25.550;2023-04-27T09:46:25;99540.73;;;10.65;64.42
37066;BME280;22981;43.080;25.550;2023-04-27T09:48:55;99545.79;;;10.64;63.89
37066;BME280;22981;43.080;25.550;2023-04-27T09:51:23;99537.80;;;10.57;63.96
37066;BME280;22981;43.080;25.550;2023-04-27T09:53:53;99537.01;;;10.66;63.97
37066;BME280;22981;43.080;25.550;2023-04-27T09:57:34;99532.86;;;10.70;63.98
37066;BME280;22981;43.080;25.550;2023-04-27T09:59:29;99534.72;;;10.69;63.77
37066;BME280;22981;43.080;25.550;2023-04-27T10:01:58;99529.59;;;10.68;64.10
37066;BME280;22981;43.080;25.550;2023-04-27T10:07:16;99517.99;;;10.74;64.33
37066;BME280;22981;43.080;25.550;2023-04-27T10:09:48;99512.98;;;10.84;64.41
37066;BME280;22981;43.080;25.550;2023-04-27T10:12:27;99517.83;;;10.94;64.34
37066;BME280;22981;43.080;25.550;2023-04-27T10:15:10;99513.91;;;11.06;64.01
37066;BME280;22981;43.080;25.550;2023-04-27T10:17:32;99509.89;;;11.06;63.54
37066;BME280;22981;43.080;25.550;2023-04-27T10:20:05;99509.61;;;11.23;63.59
37066;BME280;22981;43.080;25.550;2023-04-27T10:22:43;99508.12;;;11.36;62.92
37066;BME280;22981;43.080;25.550;2023-04-27T10:25:25;99506.39;;;11.42;62.90
37066;BME280;22981;43.080;25.550;2023-04-27T10:28:01;99511.07;;;11.56;62.98
37066;BME280;22981;43.080;25.550;2023-04-27T10:30:34;99513.46;;;11.54;62.20
37066;BME280;22981;43.080;25.550;2023-04-27T10:33:09;99513.18;;;11.44;62.03
37066;BME280;22981;43.080;25.550;2023-04-27T10:35:40;99515.92;;;11.38;61.76
37066;BME280;22981;43.080;25.550;2023-04-27T10:38:16;99509.23;;;11.28;61.64
37066;BME280;22981;43.080;25.550;2023-04-27T10:40:52;99517.94;;;11.24;61.58
37066;BME280;22981;43.080;25.550;2023-04-27T10:43:15;99514.30;;;11.27;61.86
37066;BME280;22981;43.080;25.550;2023-04-27T10:45:44;99519.13;;;11.37;62.00
37066;BME280;22981;43.080;25.550;2023-04-27T10:48:14;99512.95;;;11.46;61.68
37066;BME280;22981;43.080;25.550;2023-04-27T10:50:42;99508.20;;;11.48;61.40
37066;BME280;22981;43.080;25.550;2023-04-27T10:53:13;99510.71;;;11.61;61.43
37066;BME280;22981;43.080;25.550;2023-04-27T10:55:41;99509.06;;;11.88;61.13
37066;BME280;22981;43.080;25.550;2023-04-27T10:58:08;99500.55;;;12.12;60.72
37066;BME280;22981;43.080;25.550;2023-04-27T11:00:38;99502.72;;;12.33;60.33
37066;BME280;22981;43.080;25.550;2023-04-27T11:03:16;99497.80;;;12.63;60.41
37066;BME280;22981;43.080;25.550;2023-04-27T11:05:45;99494.38;;;13.00;60.78
37066;BME280;22981;43.080;25.550;2023-04-27T11:08:18;99492.48;;;13.36;59.97
37066;BME280;22981;43.080;25.550;2023-04-27T11:10:48;99489.28;;;13.62;59.77
37066;BME280;22981;43.080;25.550;2023-04-27T11:13:20;99490.72;;;13.82;58.90
37066;BME280;22981;43.080;25.550;2023-04-27T11:15:52;99490.00;;;13.86;58.31
37066;BME280;22981;43.080;25.550;2023-04-27T11:18:22;99486.20;;;13.99;58.85
37066;BME280;22981;43.080;25.550;2023-04-27T11:21:04;99484.55;;;14.12;58.57
37066;BME280;22981;43.080;25.550;2023-04-27T11:23:28;99478.50;;;14.19;58.58
37066;BME280;22981;43.080;25.550;2023-04-27T11:26:07;99481.13;;;14.17;57.86
37066;BME280;22981;43.080;25.550;2023-04-27T11:28:27;99485.48;;;14.18;57.82
37066;BME280;22981;43.080;25.550;2023-04-27T11:30:56;99482.75;;;14.01;57.23
37066;BME280;22981;43.080;25.550;2023-04-27T11:33:24;99481.37;;;13.84;57.65
37066;BME280;22981;43.080;25.550;2023-04-27T11:35:52;99479.93;;;13.79;58.12
37066;BME280;22981;43.080;25.550;2023-04-27T11:38:20;99483.44;;;13.80;57.98
37066;BME280;22981;43.080;25.550;2023-04-27T11:41:07;99479.62;;;13.78;57.48
37066;BME280;22981;43.080;25.550;2023-04-27T11:43:35;99485.00;;;13.78;57.42
37066;BME280;22981;43.080;25.550;2023-04-27T11:46:04;99484.13;;;13.61;57.51
37066;BME280;22981;43.080;25.550;2023-04-27T11:48:35;99480.96;;;13.49;58.24
37066;BME280;22981;43.080;25.550;2023-04-27T11:51:04;99480.47;;;13.52;58.79
37066;BME280;22981;43.080;25.550;2023-04-27T11:53:37;99483.31;;;13.60;59.01
37066;BME280;22981;43.080;25.550;2023-04-27T11:56:06;99481.47;;;13.75;59.20
37066;BME280;22981;43.080;25.550;2023-04-27T11:58:37;99482.09;;;13.80;58.84
37066;BME280;22981;43.080;25.550;2023-04-27T12:01:05;99475.73;;;13.86;58.92
37066;BME280;22981;43.080;25.550;2023-04-27T12:03:33;99473.47;;;13.94;58.88
37066;BME280;22981;43.080;25.550;2023-04-27T12:06:01;99475.16;;;13.98;58.78
37066;BME280;22981;43.080;25.550;2023-04-27T12:08:29;99477.23;;;13.93;58.66
37066;BME280;22981;43.080;25.550;2023-04-27T12:10:57;99476.02;;;13.87;58.90
37066;BME280;22981;43.080;25.550;2023-04-27T12:13:24;99474.39;;;13.86;59.13
37066;BME280;22981;43.080;25.550;2023-04-27T12:15:52;99474.98;;;13.88;59.64
37066;BME280;22981;43.080;25.550;2023-04-27T12:18:20;99473.91;;;13.89;59.66
37066;BME280;22981;43.080;25.550;2023-04-27T12:20:47;99475.98;;;13.84;59.73
37066;BME280;22981;43.080;25.550;2023-04-27T12:23:15;99472.51;;;13.86;59.79
37066;BME280;22981;43.080;25.550;2023-04-27T12:25:42;99477.89;;;13.86;59.54
37066;BME280;22981;43.080;25.550;2023-04-27T12:28:10;99475.82;;;13.91;59.89
37066;BME280;22981;43.080;25.550;2023-04-27T12:30:39;99475.69;;;13.97;60.20
37066;BME280;22981;43.080;25.550;2023-04-27T12:33:07;99468.84;;;14.07;59.86
37066;BME280;22981;43.080;25.550;2023-04-27T12:35:36;99461.14;;;14.13;59.39
37066;BME280;22981;43.080;25.550;2023-04-27T12:38:04;99465.03;;;14.19;59.20
37066;BME280;22981;43.080;25.550;2023-04-27T12:40:34;99462.56;;;14.32;59.32
37066;BME280;22981;43.080;25.550;2023-04-27T12:43:08;99464.17;;;14.47;58.99
37066;BME280;22981;43.080;25.550;2023-04-27T12:45:36;99453.58;;;14.77;58.96
37066;BME280;22981;43.080;25.550;2023-04-27T12:48:14;99444.70;;;14.96;58.75
37066;BME280;22981;43.080;25.550;2023-04-27T12:50:44;99445.10;;;15.07;58.38
37066;BME280;22981;43.080;25.550;2023-04-27T12:53:18;99441.36;;;15.08;58.49
37066;BME280;22981;43.080;25.550;2023-04-27T12:55:47;99445.31;;;15.03;58.66
37066;BME280;22981;43.080;25.550;2023-04-27T12:58:17;99441.53;;;15.01;58.64
37066;BME280;22981;43.080;25.550;2023-04-27T13:00:44;99442.02;;;14.98;58.41
37066;BME280;22981;43.080;25.550;2023-04-27T13:03:12;99435.22;;;14.93;57.83
37066;BME280;22981;43.080;25.550;2023-04-27T13:05:39;99442.36;;;14.83;57.92
37066;BME280;22981;43.080;25.550;2023-04-27T13:08:07;99437.66;;;14.75;58.08